createdAt,value
2022-10-01T00:02:09.540Z,3.50
2022-10-01T00:04:37.715Z,2.70
2022-10-01T00:07:10.965Z,2.97
2022-10-01T00:09:38.685Z,2.83
2022-10-01T00:12:08.285Z,2.80
2022-10-01T00:14:38.534Z,2.70
2022-10-01T00:17:08.237Z,2.50
2022-10-01T00:19:40.314Z,2.63
2022-10-01T00:22:07.621Z,2.70
2022-10-01T00:24:37.710Z,2.50
2022-10-01T00:27:04.970Z,2.70
2022-10-01T00:29:37.663Z,2.73
2022-10-01T00:32:07.246Z,2.40
2022-10-01T00:34:36.586Z,2.27
2022-10-01T00:37:04.668Z,2.40
2022-10-01T00:39:36.503Z,2.50
2022-10-01T00:42:15.835Z,2.30
2022-10-01T00:44:45.267Z,1.80
2022-10-01T00:47:24.741Z,2.00
2022-10-01T00:50:01.442Z,2.00
2022-10-01T00:52:39.742Z,1.70
2022-10-01T00:55:13.510Z,1.50
2022-10-01T00:57:41.965Z,1.50
2022-10-01T01:00:14.929Z,1.27
2022-10-01T01:02:44.184Z,1.30
2022-10-01T01:05:13.578Z,1.33
2022-10-01T01:07:47.966Z,1.50
2022-10-01T01:10:23.088Z,0.90
2022-10-01T01:13:28.883Z,1.00
2022-10-01T01:16:06.630Z,1.00
2022-10-01T01:19:07.306Z,0.70
2022-10-01T01:21:46.412Z,1.40
2022-10-01T01:24:37.904Z,0.90
2022-10-01T01:27:22.583Z,1.00
2022-10-01T01:30:08.438Z,0.83
2022-10-01T01:32:46.231Z,0.90
2022-10-01T01:35:32.215Z,0.63
2022-10-01T01:38:05.677Z,0.90
2022-10-01T01:40:36.771Z,0.63
2022-10-01T01:43:17.491Z,0.60
2022-10-01T01:45:45.372Z,0.70
2022-10-01T01:48:17.795Z,0.80
2022-10-01T01:51:06.382Z,0.70
2022-10-01T01:53:35.996Z,0.70
2022-10-01T01:56:07.276Z,0.70
2022-10-01T01:58:43.008Z,0.60
2022-10-01T02:01:40.599Z,0.70
2022-10-01T02:04:13.147Z,0.40
2022-10-01T02:07:17.431Z,0.80
2022-10-01T02:10:15.600Z,0.83
2022-10-01T02:12:57.102Z,0.63
2022-10-01T02:15:40.678Z,0.50
2022-10-01T02:18:23.061Z,0.60
2022-10-01T02:20:59.874Z,0.63
2022-10-01T02:23:31.489Z,0.70
2022-10-01T02:26:04.488Z,0.50
2022-10-01T02:28:34.121Z,0.43
2022-10-01T02:31:03.275Z,0.50
2022-10-01T02:33:32.522Z,0.80
2022-10-01T02:36:03.918Z,0.50
2022-10-01T02:38:36.800Z,0.50
2022-10-01T02:41:07.416Z,0.47
2022-10-01T02:43:42.749Z,0.40
2022-10-01T02:46:23.795Z,0.50
2022-10-01T02:48:53.878Z,0.40
2022-10-01T02:51:43.054Z,0.37
2022-10-01T02:54:58.240Z,0.47
2022-10-01T02:57:28.899Z,0.50
2022-10-01T03:00:01.992Z,0.40
2022-10-01T03:02:31.748Z,0.30
2022-10-01T03:05:02.128Z,0.30
2022-10-01T03:07:31.723Z,0.40
2022-10-01T03:10:02.504Z,0.20
2022-10-01T03:12:29.757Z,0.30
2022-10-01T03:14:59.302Z,0.30
2022-10-01T03:17:31.464Z,0.30
2022-10-01T03:20:01.716Z,0.30
2022-10-01T03:22:28.818Z,0.20
2022-10-01T03:24:58.560Z,0.40
2022-10-01T03:27:28.001Z,0.40
2022-10-01T03:29:58.253Z,0.30
2022-10-01T03:32:25.487Z,0.40
2022-10-01T03:34:54.707Z,0.37
2022-10-01T03:37:21.930Z,0.40
2022-10-01T03:39:53.556Z,0.30
2022-10-01T03:42:20.760Z,0.50
2022-10-01T03:44:50.386Z,0.30
2022-10-01T03:47:22.186Z,0.33
2022-10-01T03:49:52.245Z,0.30
2022-10-01T03:52:24.949Z,0.20
2022-10-01T03:54:54.625Z,0.33
2022-10-01T03:57:24.192Z,0.30
2022-10-01T03:59:57.933Z,0.30
2022-10-01T04:02:27.886Z,0.27
2022-10-01T04:04:55.107Z,0.23
2022-10-01T04:07:22.280Z,0.30
2022-10-01T04:09:51.817Z,0.20
2022-10-01T04:12:21.547Z,0.30
2022-10-01T04:14:48.704Z,0.30
2022-10-01T04:17:18.192Z,0.20
2022-10-01T04:19:45.493Z,0.30
2022-10-01T04:22:15.700Z,0.20
2022-10-01T04:24:45.065Z,0.30
2022-10-01T04:27:15.380Z,0.30
2022-10-01T04:29:47.048Z,0.33
2022-10-01T04:32:21.598Z,0.27
2022-10-01T04:34:54.766Z,0.27
2022-10-01T04:37:22.598Z,0.30
2022-10-01T04:39:50.253Z,0.30
2022-10-01T04:42:19.547Z,0.20
2022-10-01T04:44:49.111Z,0.20
2022-10-01T04:47:16.296Z,0.30
2022-10-01T04:49:43.485Z,0.20
2022-10-01T04:52:11.182Z,0.30
2022-10-01T04:54:40.495Z,0.20
2022-10-01T04:57:10.165Z,0.20
2022-10-01T04:59:37.384Z,0.40
2022-10-01T05:02:06.912Z,0.30
2022-10-01T05:04:34.107Z,0.47
2022-10-01T05:07:01.306Z,0.20
2022-10-01T05:09:30.665Z,0.40
2022-10-01T05:12:00.037Z,0.40
2022-10-01T05:14:27.280Z,0.20
2022-10-01T05:16:59.236Z,0.30
2022-10-01T05:19:29.098Z,0.30
2022-10-01T05:22:04.309Z,0.43
2022-10-01T05:24:31.515Z,0.40
2022-10-01T05:27:00.697Z,0.50
2022-10-01T05:29:30.675Z,0.50
2022-10-01T05:31:58.446Z,0.33
2022-10-01T05:34:33.705Z,0.50
2022-10-01T05:37:01.107Z,0.40
2022-10-01T05:39:28.581Z,0.80
2022-10-01T05:42:00.597Z,0.60
2022-10-01T05:44:37.927Z,0.50
2022-10-01T05:47:08.998Z,0.60
2022-10-01T05:49:36.720Z,0.57
2022-10-01T05:52:04.614Z,0.90
2022-10-01T05:54:31.830Z,0.67
2022-10-01T05:57:01.073Z,0.67
2022-10-01T05:59:31.692Z,0.57
2022-10-01T06:01:59.421Z,0.60
2022-10-01T06:04:27.080Z,0.50
2022-10-01T06:06:55.084Z,0.60
2022-10-01T06:09:22.257Z,0.50
2022-10-01T06:11:49.679Z,1.17
2022-10-01T06:14:21.273Z,1.00
2022-10-01T06:16:51.017Z,1.10
2022-10-01T06:19:18.229Z,1.00
2022-10-01T06:21:45.570Z,0.90
2022-10-01T06:24:12.720Z,1.03
2022-10-01T06:26:42.590Z,0.80
2022-10-01T06:29:10.871Z,0.83
2022-10-01T06:31:41.115Z,0.80
2022-10-01T06:34:10.783Z,0.70
2022-10-01T06:36:40.470Z,1.10
2022-10-01T06:39:07.608Z,0.90
2022-10-01T06:41:37.047Z,1.00
2022-10-01T06:44:09.395Z,1.20
2022-10-01T06:46:41.086Z,1.10
2022-10-01T06:49:08.299Z,1.07
2022-10-01T06:51:58.844Z,0.93
2022-10-01T06:54:28.294Z,1.10
2022-10-01T06:56:57.665Z,0.83
2022-10-01T06:59:24.835Z,1.67
2022-10-01T07:01:56.284Z,1.27
2022-10-01T07:04:23.792Z,0.80
2022-10-01T07:06:51.023Z,0.97
2022-10-01T07:09:18.200Z,0.80
2022-10-01T07:11:47.593Z,0.97
2022-10-01T07:14:14.856Z,1.07
2022-10-01T07:16:42.064Z,1.10
2022-10-01T07:19:09.352Z,1.17
2022-10-01T07:21:38.851Z,1.90
2022-10-01T07:24:06.168Z,1.40
2022-10-01T07:26:33.545Z,1.50
2022-10-01T07:29:02.885Z,1.27
2022-10-01T07:31:30.090Z,1.50
2022-10-01T07:33:58.595Z,1.60
2022-10-01T07:36:25.872Z,1.60
2022-10-01T07:38:53.069Z,1.33
2022-10-01T07:41:25.081Z,1.90
2022-10-01T07:43:54.697Z,1.60
2022-10-01T07:46:22.060Z,2.00
2022-10-01T07:48:51.532Z,2.30
2022-10-01T07:51:19.267Z,2.67
2022-10-01T07:53:46.593Z,2.30
2022-10-01T07:56:16.376Z,2.73
2022-10-01T07:58:44.200Z,3.23
2022-10-01T08:01:11.328Z,3.10
2022-10-01T08:03:41.651Z,3.60
2022-10-01T08:06:12.011Z,3.40
2022-10-01T08:08:39.192Z,3.80
2022-10-01T08:11:13.487Z,4.07
2022-10-01T08:13:41.301Z,3.63
2022-10-01T08:16:12.015Z,3.50
2022-10-01T08:18:44.953Z,3.80
2022-10-01T08:21:12.487Z,4.03
2022-10-01T08:23:39.674Z,4.50
2022-10-01T08:26:11.400Z,3.97
2022-10-01T08:28:41.023Z,3.87
2022-10-01T08:31:11.021Z,3.30
2022-10-01T08:33:40.563Z,3.40
2022-10-01T08:36:10.611Z,3.27
2022-10-01T08:38:37.930Z,3.63
2022-10-01T08:41:21.262Z,3.00
2022-10-01T08:43:51.709Z,2.63
2022-10-01T08:46:27.730Z,3.40
2022-10-01T08:49:15.432Z,2.90
2022-10-01T08:51:48.402Z,3.17
2022-10-01T08:54:34.314Z,3.57
2022-10-01T08:57:09.591Z,3.47
2022-10-01T08:59:42.506Z,3.60
2022-10-01T09:02:23.789Z,3.40
2022-10-01T09:05:01.248Z,3.80
2022-10-01T09:08:16.150Z,3.67
2022-10-01T09:10:46.822Z,3.77
2022-10-01T09:13:41.590Z,3.67
2022-10-01T09:16:46.418Z,3.10
2022-10-01T09:19:47.235Z,4.13
2022-10-01T09:22:15.046Z,3.00
2022-10-01T09:24:50.039Z,3.90
2022-10-01T09:27:25.628Z,3.70
2022-10-01T09:30:16.163Z,4.60
2022-10-01T09:33:09.903Z,4.57
2022-10-01T09:35:56.805Z,5.27
2022-10-01T09:38:44.337Z,5.27
2022-10-01T09:41:12.851Z,4.17
2022-10-01T09:43:44.566Z,4.60
2022-10-01T09:46:17.005Z,4.47
2022-10-01T09:49:03.366Z,4.10
2022-10-01T09:51:40.931Z,4.00
2022-10-01T09:54:15.029Z,3.83
2022-10-01T09:56:53.550Z,3.80
2022-10-01T09:59:31.345Z,4.20
2022-10-01T10:02:01.093Z,4.23
2022-10-01T10:04:28.377Z,4.47
2022-10-01T10:07:05.808Z,4.40
2022-10-01T10:09:35.515Z,3.80
2022-10-01T10:12:03.203Z,4.23
2022-10-01T10:14:37.732Z,3.73
2022-10-01T10:17:11.201Z,3.97
2022-10-01T10:19:39.867Z,3.80
2022-10-01T10:22:28.327Z,3.83
2022-10-01T10:25:10.387Z,3.60
2022-10-01T10:27:37.619Z,3.80
2022-10-01T10:30:15.676Z,3.77
2022-10-01T10:32:48.190Z,3.33
2022-10-01T10:35:20.538Z,3.90
2022-10-01T10:37:52.367Z,3.30
2022-10-01T10:40:29.654Z,3.50
2022-10-01T10:42:59.095Z,3.60
2022-10-01T10:45:36.830Z,3.83
2022-10-01T10:48:07.156Z,3.70
2022-10-01T10:50:43.299Z,4.07
2022-10-01T10:53:27.607Z,4.57
2022-10-01T10:56:03.243Z,4.13
2022-10-01T10:58:40.264Z,4.07
2022-10-01T11:01:16.354Z,3.50
2022-10-01T11:04:00.596Z,4.30
2022-10-01T11:06:28.146Z,4.20
2022-10-01T11:09:07.531Z,4.23
2022-10-01T11:12:05.208Z,4.07
2022-10-01T11:14:49.143Z,3.87
2022-10-01T11:17:18.676Z,4.10
2022-10-01T11:20:16.330Z,4.50
2022-10-01T11:22:45.749Z,4.27
2022-10-01T11:25:27.233Z,3.80
2022-10-01T11:28:00.404Z,4.47
2022-10-01T11:30:42.205Z,3.70
2022-10-01T11:33:45.197Z,4.23
2022-10-01T11:36:41.185Z,4.50
2022-10-01T11:39:20.159Z,3.73
2022-10-01T11:41:56.222Z,4.20
2022-10-01T11:44:34.692Z,4.20
2022-10-01T11:47:28.189Z,3.60
2022-10-01T11:50:07.607Z,3.80
2022-10-01T11:52:52.703Z,4.13
2022-10-01T11:56:03.796Z,3.87
2022-10-01T11:58:54.252Z,3.73
2022-10-01T12:01:45.082Z,3.83
2022-10-01T12:04:33.376Z,3.23
2022-10-01T12:07:20.554Z,3.53
2022-10-01T12:10:16.476Z,2.63
2022-10-01T12:13:03.204Z,3.10
2022-10-01T12:16:01.919Z,3.10
2022-10-01T12:18:38.623Z,3.27
2022-10-01T12:21:19.485Z,3.27
2022-10-01T12:24:00.363Z,2.63
2022-10-01T12:26:41.641Z,2.47
2022-10-01T12:29:38.265Z,2.60
2022-10-01T12:32:05.375Z,2.77
2022-10-01T12:34:57.465Z,2.80
2022-10-01T12:37:49.304Z,2.50
2022-10-01T12:40:22.993Z,3.10
2022-10-01T12:43:31.829Z,2.00
2022-10-01T12:46:20.772Z,2.00
2022-10-01T12:49:00.832Z,2.20
2022-10-01T12:51:52.996Z,2.10
2022-10-01T12:54:51.416Z,2.17
2022-10-01T12:57:45.164Z,2.13
2022-10-01T13:00:15.406Z,2.63
2022-10-01T13:03:04.195Z,2.20
2022-10-01T13:05:54.608Z,2.10
2022-10-01T13:08:39.513Z,1.87
2022-10-01T13:11:37.405Z,2.87
2022-10-01T13:14:07.259Z,2.20
2022-10-01T13:16:49.164Z,2.27
2022-10-01T13:19:24.922Z,2.27
2022-10-01T13:21:57.797Z,1.87
2022-10-01T13:24:32.541Z,2.53
2022-10-01T13:27:17.908Z,2.57
2022-10-01T13:30:00.020Z,1.83
2022-10-01T13:32:33.930Z,2.00
2022-10-01T13:35:21.618Z,2.20
2022-10-01T13:37:48.812Z,1.60
2022-10-01T13:40:29.191Z,1.73
2022-10-01T13:43:15.556Z,2.00
2022-10-01T13:45:48.092Z,1.77
2022-10-01T13:48:23.872Z,1.73
2022-10-01T13:51:05.515Z,2.37
2022-10-01T13:53:47.363Z,1.83
2022-10-01T13:56:36.827Z,1.77
2022-10-01T13:59:20.711Z,1.80
2022-10-01T14:01:50.450Z,2.22
2022-10-01T14:04:38.119Z,1.38
2022-10-01T14:07:27.593Z,1.80
2022-10-01T14:09:59.377Z,1.53
2022-10-01T14:12:49.443Z,1.70
2022-10-01T14:15:58.541Z,1.65
2022-10-01T14:18:37.957Z,1.40
2022-10-01T14:21:42.852Z,1.70
2022-10-01T14:24:23.794Z,1.83
2022-10-01T14:27:11.600Z,1.80
2022-10-01T14:29:44.597Z,1.47
2022-10-01T14:32:23.433Z,1.88
2022-10-01T14:35:19.380Z,1.90
2022-10-01T14:37:47.369Z,1.70
2022-10-01T14:40:26.493Z,1.97
2022-10-01T14:43:14.615Z,2.00
2022-10-01T14:45:56.908Z,1.40
2022-10-01T14:48:26.221Z,1.83
2022-10-01T14:50:57.084Z,1.97
2022-10-01T14:53:28.837Z,1.93
2022-10-01T14:56:12.663Z,1.40
2022-10-01T14:58:54.950Z,1.58
2022-10-01T15:01:24.045Z,2.03
2022-10-01T15:03:55.132Z,2.13
2022-10-01T15:06:30.327Z,1.80
2022-10-01T15:09:14.375Z,2.03
2022-10-01T15:11:44.678Z,2.27
2022-10-01T15:14:21.449Z,1.67
2022-10-01T15:16:51.954Z,1.73
2022-10-01T15:19:23.469Z,1.90
2022-10-01T15:21:56.524Z,1.80
2022-10-01T15:24:38.412Z,1.90
2022-10-01T15:27:07.134Z,1.87
2022-10-01T15:29:35.497Z,1.83
2022-10-01T15:32:05.836Z,1.77
2022-10-01T15:34:37.248Z,2.27
2022-10-01T15:37:04.762Z,1.50
2022-10-01T15:39:40.143Z,2.20
2022-10-01T15:42:22.779Z,1.73
2022-10-01T15:44:50.199Z,1.97
2022-10-01T15:47:51.634Z,1.90
2022-10-01T15:50:27.193Z,1.40
2022-10-01T15:53:21.485Z,2.10
2022-10-01T15:55:59.681Z,2.07
2022-10-01T15:58:35.149Z,1.43
2022-10-01T16:01:17.716Z,1.73
2022-10-01T16:04:10.442Z,1.80
2022-10-01T16:06:44.191Z,2.07
2022-10-01T16:09:22.690Z,3.30
2022-10-01T16:12:18.217Z,2.43
2022-10-01T16:15:22.864Z,2.13
2022-10-01T16:17:58.174Z,1.97
2022-10-01T16:20:50.497Z,2.33
2022-10-01T16:23:47.765Z,1.70
2022-10-01T16:26:27.327Z,1.57
2022-10-01T16:29:12.057Z,1.83
2022-10-01T16:31:44.614Z,1.80
2022-10-01T16:34:20.676Z,1.90
2022-10-01T16:36:50.323Z,1.83
2022-10-01T16:39:17.541Z,1.83
2022-10-01T16:42:12.140Z,1.90
2022-10-01T16:44:39.912Z,2.80
2022-10-01T16:47:08.044Z,2.60
2022-10-01T16:49:35.205Z,2.07
2022-10-01T16:52:04.854Z,2.40
2022-10-01T16:54:35.211Z,1.75
2022-10-01T16:57:06.632Z,2.07
2022-10-01T16:59:35.905Z,2.23
2022-10-01T17:02:05.368Z,1.90
2022-10-01T17:04:34.071Z,2.10
2022-10-01T17:07:01.698Z,2.40
2022-10-01T17:09:31.436Z,2.60
2022-10-01T17:11:58.617Z,3.40
2022-10-01T17:14:28.259Z,2.40
2022-10-01T17:16:57.717Z,2.53
2022-10-01T17:19:27.236Z,2.37
2022-10-01T17:21:55.860Z,4.17
2022-10-01T17:24:23.156Z,3.45
2022-10-01T17:26:54.536Z,3.30
2022-10-01T17:29:21.688Z,2.37
2022-10-01T17:31:53.285Z,2.27
2022-10-01T17:34:21.341Z,2.27
2022-10-01T17:36:51.737Z,2.33
2022-10-01T17:39:18.967Z,2.47
2022-10-01T17:41:46.297Z,2.07
2022-10-01T17:44:13.574Z,2.43
2022-10-01T17:46:45.627Z,2.70
2022-10-01T17:49:14.548Z,3.07
2022-10-01T17:51:44.289Z,3.33
2022-10-01T17:54:11.449Z,2.80
2022-10-01T17:56:38.864Z,2.53
2022-10-01T17:59:08.574Z,2.47
2022-10-01T18:01:41.287Z,2.40
2022-10-01T18:04:12.989Z,2.30
2022-10-01T18:06:43.761Z,2.70
2022-10-01T18:09:13.287Z,2.57
2022-10-01T18:11:42.767Z,2.63
2022-10-01T18:14:09.956Z,2.97
2022-10-01T18:16:38.078Z,2.83
2022-10-01T18:22:01.320Z,3.30
2022-10-01T18:24:29.452Z,4.93
2022-10-01T18:27:01.676Z,11.83
2022-10-01T18:29:28.920Z,9.10
2022-10-01T18:32:12.828Z,4.80
2022-10-01T18:34:52.528Z,4.10
2022-10-01T18:37:40.211Z,3.47
2022-10-01T18:40:15.441Z,3.60
2022-10-01T18:42:54.160Z,3.50
2022-10-01T18:45:55.597Z,4.47
2022-10-01T18:48:50.777Z,3.60
2022-10-01T18:51:51.271Z,3.67
2022-10-01T18:54:18.343Z,3.73
2022-10-01T18:57:07.206Z,3.03
2022-10-01T18:59:49.892Z,3.10
2022-10-01T19:02:35.911Z,3.87
2022-10-01T19:05:42.945Z,3.33
2022-10-01T19:08:40.922Z,3.30
2022-10-01T19:11:23.359Z,3.20
2022-10-01T19:14:28.535Z,3.60
2022-10-01T19:17:26.619Z,3.37
2022-10-01T19:20:15.626Z,3.30
2022-10-01T19:23:04.874Z,3.10
2022-10-01T19:26:06.672Z,2.90
2022-10-01T19:28:55.614Z,3.23
2022-10-01T19:31:48.833Z,3.03
2022-10-01T19:34:26.537Z,3.03
2022-10-01T19:37:02.448Z,2.60
2022-10-01T19:39:38.649Z,3.30
2022-10-01T19:42:21.260Z,3.00
2022-10-01T19:45:07.680Z,2.90
2022-10-01T19:47:38.789Z,3.13
2022-10-01T19:50:21.715Z,3.13
2022-10-01T19:52:52.524Z,3.30
2022-10-01T19:55:22.908Z,2.90
2022-10-01T19:57:50.368Z,3.17
2022-10-01T20:00:22.560Z,2.97
2022-10-01T20:03:00.490Z,3.20
2022-10-01T20:05:49.330Z,3.37
2022-10-01T20:08:36.185Z,3.53
2022-10-01T20:11:27.725Z,3.67
2022-10-01T20:14:39.046Z,3.20
2022-10-01T20:17:23.475Z,3.17
2022-10-01T20:20:10.926Z,3.43
2022-10-01T20:22:44.080Z,3.13
2022-10-01T20:25:39.776Z,2.97
2022-10-01T20:28:16.158Z,3.37
2022-10-01T20:31:02.727Z,3.07
2022-10-01T20:33:50.407Z,3.23
2022-10-01T20:36:40.621Z,3.37
2022-10-01T20:39:25.414Z,3.43
2022-10-01T20:41:56.924Z,4.37
2022-10-01T20:44:34.302Z,3.67
2022-10-01T20:47:19.093Z,3.20
2022-10-01T20:50:04.829Z,2.90
2022-10-01T20:52:50.255Z,3.47
2022-10-01T20:55:29.220Z,3.40
2022-10-01T20:58:02.576Z,3.13
2022-10-01T21:00:32.412Z,3.33
2022-10-01T21:03:09.150Z,2.80
2022-10-01T21:05:46.429Z,3.33
2022-10-01T21:08:53.578Z,3.13
2022-10-01T21:11:28.984Z,3.07
2022-10-01T21:14:18.855Z,3.27
2022-10-01T21:17:07.639Z,3.07
2022-10-01T21:19:53.226Z,3.23
2022-10-01T21:22:53.892Z,3.37
2022-10-01T21:25:49.127Z,3.10
2022-10-01T21:28:37.200Z,3.27
2022-10-01T21:31:22.429Z,2.87
2022-10-01T21:34:00.804Z,3.00
2022-10-01T21:36:48.021Z,3.00
2022-10-01T21:39:30.599Z,2.80
2022-10-01T21:42:02.955Z,2.73
2022-10-01T21:44:47.790Z,3.17
2022-10-01T21:47:41.487Z,3.47
2022-10-01T21:50:20.642Z,3.67
2022-10-01T21:53:18.531Z,2.73
2022-10-01T21:55:55.719Z,4.13
2022-10-01T21:58:51.308Z,3.60
2022-10-01T22:01:25.643Z,3.47
2022-10-01T22:04:03.626Z,3.23
2022-10-01T22:06:51.253Z,3.70
2022-10-01T22:09:30.453Z,3.20
2022-10-01T22:12:01.667Z,3.63
2022-10-01T22:14:31.551Z,3.03
2022-10-01T22:17:08.613Z,3.50
2022-10-01T22:19:41.763Z,3.73
2022-10-01T22:22:35.222Z,3.03
2022-10-01T22:25:03.027Z,3.40
2022-10-01T22:27:31.961Z,3.73
2022-10-01T22:30:06.323Z,3.00
2022-10-01T22:32:46.113Z,4.03
2022-10-01T22:36:02.337Z,3.03
2022-10-01T22:38:38.928Z,3.83
2022-10-01T22:41:28.676Z,3.60
2022-10-01T22:43:55.847Z,3.50
2022-10-01T22:46:44.686Z,3.23
2022-10-01T22:49:39.535Z,4.30
2022-10-01T22:52:31.325Z,4.20
2022-10-01T22:55:22.598Z,3.77
2022-10-01T22:57:56.216Z,3.27
2022-10-01T23:00:23.674Z,3.63
2022-10-01T23:03:15.811Z,3.13
2022-10-01T23:05:45.936Z,3.70
2022-10-01T23:08:49.743Z,3.73
2022-10-01T23:12:07.802Z,3.20
2022-10-01T23:14:57.960Z,3.90
2022-10-01T23:17:38.749Z,3.70
2022-10-01T23:20:31.819Z,3.40
2022-10-01T23:23:11.163Z,3.47
2022-10-01T23:25:56.234Z,3.80
2022-10-01T23:28:32.196Z,3.80
2022-10-01T23:31:05.180Z,3.57
2022-10-01T23:33:44.086Z,3.60
2022-10-01T23:37:01.670Z,3.60
2022-10-01T23:39:37.028Z,3.27
2022-10-01T23:42:23.086Z,3.67
2022-10-01T23:45:13.102Z,4.47
2022-10-01T23:48:11.984Z,3.70
2022-10-01T23:51:05.822Z,4.23
2022-10-01T23:54:10.877Z,3.30
2022-10-01T23:56:49.944Z,4.37
2022-10-01T23:59:48.849Z,3.40
